createdAt,value
2022-12-06T00:03:40.654Z,0.81
2022-12-06T00:12:03.810Z,0.78
2022-12-06T00:20:26.790Z,0.85
2022-12-06T00:28:53.644Z,0.85
2022-12-06T00:37:16.550Z,0.79
2022-12-06T00:45:39.501Z,0.86
2022-12-06T00:54:03.077Z,0.83
2022-12-06T01:02:25.970Z,0.77
2022-12-06T01:10:55.436Z,0.81
2022-12-06T01:19:18.348Z,0.70
2022-12-06T01:27:41.272Z,0.59
2022-12-06T01:36:05.318Z,0.58
2022-12-06T01:44:40.839Z,0.52
2022-12-06T01:53:08.614Z,0.44
2022-12-06T02:01:31.628Z,0.51
2022-12-06T02:09:55.442Z,0.55
2022-12-06T02:18:31.469Z,0.49
2022-12-06T02:27:16.418Z,0.49
2022-12-06T02:35:47.226Z,0.45
2022-12-06T02:44:17.609Z,0.47
2022-12-06T02:52:44.405Z,0.53
2022-12-06T03:01:13.687Z,0.49
2022-12-06T03:09:56.312Z,0.42
2022-12-06T03:18:31.974Z,0.49
2022-12-06T03:26:59.011Z,0.54
2022-12-06T03:35:27.255Z,0.50
2022-12-06T03:43:50.288Z,0.57
2022-12-06T03:52:13.566Z,0.56
2022-12-06T04:00:36.469Z,0.50
2022-12-06T04:09:19.275Z,0.53
2022-12-06T04:18:01.405Z,0.51
2022-12-06T04:26:25.592Z,0.44
2022-12-06T04:35:07.205Z,0.51
2022-12-06T04:43:45.097Z,0.59
2022-12-06T04:52:09.336Z,0.53
2022-12-06T05:00:32.460Z,0.59
2022-12-06T05:08:56.727Z,0.62
2022-12-06T05:17:19.692Z,0.54
2022-12-06T05:25:43.901Z,0.55
2022-12-06T05:34:06.828Z,0.53
2022-12-06T05:42:29.735Z,0.49
2022-12-06T05:50:53.987Z,0.58
2022-12-06T05:59:17.392Z,0.60
2022-12-06T06:07:40.887Z,0.61
2022-12-06T06:16:04.331Z,0.67
2022-12-06T06:24:27.794Z,0.69
2022-12-06T06:32:51.227Z,0.63
2022-12-06T06:41:14.230Z,0.71
2022-12-06T06:49:37.219Z,0.74
2022-12-06T06:58:00.530Z,0.74
2022-12-06T07:06:23.446Z,0.82
2022-12-06T07:14:46.388Z,0.83
2022-12-06T07:23:09.285Z,0.81
2022-12-06T07:31:33.891Z,0.89
2022-12-06T07:39:57.021Z,0.93
2022-12-06T07:48:20.931Z,0.97
2022-12-06T07:56:44.686Z,1.08
2022-12-06T08:05:08.657Z,1.11
2022-12-06T08:13:32.067Z,1.08
2022-12-06T08:21:55.013Z,1.17
2022-12-06T08:30:17.983Z,1.20
2022-12-06T08:38:41.393Z,1.24
2022-12-06T08:47:05.328Z,1.30
2022-12-06T08:55:28.284Z,1.35
2022-12-06T09:03:52.042Z,1.35
2022-12-06T09:12:15.227Z,1.55
2022-12-06T09:20:42.304Z,1.68
2022-12-06T09:29:05.330Z,1.69
2022-12-06T09:37:28.357Z,1.77
2022-12-06T09:46:07.034Z,1.75
2022-12-06T09:54:39.614Z,1.80
2022-12-06T10:03:21.033Z,1.96
2022-12-06T10:12:02.461Z,2.02
2022-12-06T10:21:04.524Z,2.13
2022-12-06T10:29:45.082Z,2.04
2022-12-06T10:38:42.266Z,1.97
2022-12-06T10:47:13.070Z,2.02
2022-12-06T10:55:36.015Z,2.08
2022-12-06T11:04:20.201Z,2.18
2022-12-06T11:12:43.607Z,2.21
2022-12-06T11:21:22.778Z,2.12
2022-12-06T11:29:48.660Z,2.09
2022-12-06T11:38:12.719Z,2.32
2022-12-06T11:46:35.767Z,2.54
2022-12-06T11:55:03.324Z,2.51
2022-12-06T12:03:32.809Z,2.41
2022-12-06T12:11:59.713Z,2.50
2022-12-06T12:20:28.068Z,2.55
2022-12-06T12:29:09.072Z,2.51
2022-12-06T12:37:32.007Z,2.48
2022-12-06T12:46:16.455Z,2.57
2022-12-06T12:54:39.485Z,2.58
2022-12-06T13:03:28.496Z,2.50
2022-12-06T13:11:59.764Z,2.53
2022-12-06T13:20:26.840Z,2.51
2022-12-06T13:28:57.953Z,2.46
2022-12-06T13:37:35.051Z,2.53
2022-12-06T13:46:18.290Z,2.56
2022-12-06T13:54:41.340Z,2.56
2022-12-06T14:03:13.427Z,2.63
2022-12-06T14:11:39.957Z,2.55
2022-12-06T14:20:18.048Z,2.44
2022-12-06T14:28:41.987Z,2.39
2022-12-06T14:37:20.571Z,2.32
2022-12-06T14:45:45.256Z,2.22
2022-12-06T14:54:17.933Z,2.28
2022-12-06T15:02:41.594Z,2.25
2022-12-06T15:11:33.870Z,2.17
2022-12-06T15:19:56.863Z,2.18
2022-12-06T15:28:20.100Z,2.19
2022-12-06T15:36:43.823Z,2.13
2022-12-06T15:45:14.810Z,2.20
2022-12-06T15:53:37.771Z,2.23
2022-12-06T16:02:01.520Z,2.16
2022-12-06T16:10:37.332Z,2.19
2022-12-06T16:19:07.766Z,2.15
2022-12-06T16:27:30.734Z,2.13
2022-12-06T16:35:55.601Z,2.20
2022-12-06T16:44:18.530Z,2.18
2022-12-06T16:52:41.604Z,2.11
2022-12-06T17:01:38.097Z,2.11
2022-12-06T17:10:01.516Z,2.05
2022-12-06T17:18:24.507Z,1.98
2022-12-06T17:26:47.718Z,2.06
2022-12-06T17:35:10.612Z,2.04
2022-12-06T17:43:35.617Z,2.01
2022-12-06T17:51:58.920Z,2.12
2022-12-06T18:00:22.223Z,2.14
2022-12-06T18:08:45.113Z,2.07
2022-12-06T18:17:08.117Z,2.12
2022-12-06T18:25:31.036Z,2.12
2022-12-06T18:33:54.370Z,2.05
2022-12-06T18:42:17.314Z,2.11
2022-12-06T18:50:40.986Z,2.13
2022-12-06T18:59:07.206Z,2.07
2022-12-06T19:07:30.303Z,2.09
2022-12-06T19:15:53.242Z,2.06
2022-12-06T19:24:20.220Z,2.04
2022-12-06T19:32:44.208Z,2.13
2022-12-06T19:41:09.676Z,2.10
2022-12-06T19:49:32.631Z,2.07
2022-12-06T19:57:55.592Z,2.11
2022-12-06T20:06:21.807Z,2.14
2022-12-06T20:14:47.541Z,2.09
2022-12-06T20:23:10.916Z,2.13
2022-12-06T20:31:35.622Z,2.12
2022-12-06T20:39:59.441Z,2.07
2022-12-06T20:48:22.697Z,2.10
2022-12-06T20:56:47.370Z,2.12
2022-12-06T21:05:10.374Z,2.04
2022-12-06T21:13:34.641Z,1.97
2022-12-06T21:22:01.093Z,1.83
2022-12-06T21:30:24.057Z,1.66
2022-12-06T21:38:47.058Z,1.58
2022-12-06T21:47:10.028Z,1.47
2022-12-06T21:55:32.863Z,1.27
2022-12-06T22:03:59.085Z,1.20
2022-12-06T22:12:22.208Z,1.09
2022-12-06T22:20:57.271Z,0.98
2022-12-06T22:29:20.201Z,1.05
2022-12-06T22:37:43.396Z,1.04
2022-12-06T22:46:09.663Z,1.01
2022-12-06T22:54:32.751Z,1.01
2022-12-06T23:02:55.864Z,0.97
2022-12-06T23:11:22.437Z,1.01
2022-12-06T23:19:45.330Z,1.06
2022-12-06T23:28:08.280Z,1.06
2022-12-06T23:36:33.136Z,1.11
2022-12-06T23:44:55.995Z,1.19
2022-12-06T23:53:18.827Z,1.18
